createdAt,value
2018-07-26T00:01:12.249Z,11.07
2018-07-26T00:03:41.457Z,11.83
2018-07-26T00:06:10.558Z,10.87
2018-07-26T00:08:39.663Z,10.70
2018-07-26T00:11:08.746Z,11.43
2018-07-26T00:13:38.393Z,11.70
2018-07-26T00:16:07.476Z,11.50
2018-07-26T00:18:36.563Z,10.97
2018-07-26T00:21:05.701Z,10.70
2018-07-26T00:23:34.960Z,10.57
2018-07-26T00:26:04.059Z,10.77
2018-07-26T00:28:33.178Z,11.10
2018-07-26T00:31:02.245Z,11.30
2018-07-26T00:33:31.318Z,10.90
2018-07-26T00:36:00.411Z,10.90
2018-07-26T00:38:29.534Z,10.77
2018-07-26T00:40:58.621Z,11.37
2018-07-26T00:43:27.678Z,10.13
2018-07-26T00:45:56.905Z,11.10
2018-07-26T00:48:25.980Z,10.40
2018-07-26T00:50:55.058Z,9.70
2018-07-26T00:53:24.127Z,10.30
2018-07-26T00:55:53.228Z,10.10
2018-07-26T00:58:22.329Z,11.70
2018-07-26T01:00:52.426Z,11.20
2018-07-26T01:03:21.459Z,10.50
2018-07-26T01:05:50.553Z,10.97
2018-07-26T01:08:19.649Z,10.27
2018-07-26T01:10:48.722Z,10.57
2018-07-26T01:13:17.799Z,9.77
2018-07-26T01:15:46.870Z,10.57
2018-07-26T01:18:15.973Z,10.80
2018-07-26T01:20:45.043Z,9.70
2018-07-26T01:23:14.101Z,9.90
2018-07-26T01:25:43.144Z,10.17
2018-07-26T01:28:12.252Z,9.60
2018-07-26T01:30:41.323Z,9.50
2018-07-26T01:33:10.402Z,10.20
2018-07-26T01:35:39.475Z,10.23
2018-07-26T01:38:08.517Z,9.40
2018-07-26T01:40:37.788Z,9.80
2018-07-26T01:43:17.914Z,9.30
2018-07-26T01:45:47.007Z,10.47
2018-07-26T01:48:16.060Z,10.10
2018-07-26T01:50:45.130Z,10.90
2018-07-26T01:53:14.222Z,10.13
2018-07-26T01:55:43.286Z,10.30
2018-07-26T01:58:12.339Z,10.13
2018-07-26T02:00:41.397Z,9.33
2018-07-26T02:03:11.141Z,9.60
2018-07-26T02:05:40.198Z,10.03
2018-07-26T02:08:09.290Z,9.57
2018-07-26T02:10:38.380Z,9.10
2018-07-26T02:13:07.425Z,10.10
2018-07-26T02:15:36.508Z,10.07
2018-07-26T02:18:05.589Z,10.33
2018-07-26T02:20:34.660Z,11.00
2018-07-26T02:23:03.730Z,10.33
2018-07-26T02:25:32.800Z,10.17
2018-07-26T02:28:01.898Z,10.50
2018-07-26T02:30:31.014Z,10.47
2018-07-26T02:33:01.031Z,10.30
2018-07-26T02:35:30.114Z,9.90
2018-07-26T02:37:59.147Z,10.80
2018-07-26T02:40:28.196Z,10.60
2018-07-26T02:42:57.369Z,9.63
2018-07-26T02:45:26.438Z,9.50
2018-07-26T02:47:55.473Z,10.07
2018-07-26T02:50:24.571Z,9.37
2018-07-26T02:52:53.565Z,9.90
2018-07-26T02:55:22.692Z,8.63
2018-07-26T02:57:52.171Z,8.37
2018-07-26T03:00:21.222Z,8.70
2018-07-26T03:02:50.281Z,9.17
2018-07-26T03:05:19.372Z,8.73
2018-07-26T03:07:48.407Z,9.53
2018-07-26T03:10:17.628Z,9.20
2018-07-26T03:12:46.671Z,8.60
2018-07-26T03:15:15.730Z,9.00
2018-07-26T03:17:44.822Z,8.33
2018-07-26T03:20:13.908Z,8.90
2018-07-26T03:22:42.918Z,8.40
2018-07-26T03:25:12.063Z,8.83
2018-07-26T03:27:41.537Z,8.40
2018-07-26T03:30:10.918Z,8.47
2018-07-26T03:32:39.990Z,8.70
2018-07-26T03:35:09.146Z,8.43
2018-07-26T03:37:38.235Z,8.43
2018-07-26T03:40:07.356Z,8.80
2018-07-26T03:42:36.453Z,8.90
2018-07-26T03:45:06.113Z,8.67
2018-07-26T03:47:35.226Z,9.17
2018-07-26T03:50:04.790Z,8.93
2018-07-26T03:52:33.861Z,8.90
2018-07-26T03:55:02.907Z,9.00
2018-07-26T03:57:31.994Z,8.53
2018-07-26T04:00:01.065Z,8.40
2018-07-26T04:02:30.171Z,8.73
2018-07-26T04:04:59.283Z,9.17
2018-07-26T04:07:28.374Z,8.90
2018-07-26T04:09:57.477Z,8.70
2018-07-26T04:12:26.582Z,8.90
2018-07-26T04:14:55.678Z,8.50
2018-07-26T04:17:24.958Z,9.00
2018-07-26T04:19:54.038Z,8.57
2018-07-26T04:22:23.959Z,8.53
2018-07-26T04:24:53.248Z,9.27
2018-07-26T04:27:22.297Z,9.50
2018-07-26T04:29:51.848Z,10.13
2018-07-26T04:32:21.256Z,8.83
2018-07-26T04:34:50.364Z,8.93
2018-07-26T04:37:19.438Z,8.33
2018-07-26T04:39:48.580Z,8.07
2018-07-26T04:42:17.697Z,8.87
2018-07-26T04:44:47.221Z,9.17
2018-07-26T04:47:18.565Z,8.20
2018-07-26T04:49:47.622Z,7.90
2018-07-26T04:52:16.681Z,8.37
2018-07-26T04:54:45.734Z,8.20
2018-07-26T04:57:14.838Z,8.10
2018-07-26T04:59:43.911Z,8.80
2018-07-26T05:02:13.021Z,8.83
2018-07-26T05:04:42.093Z,8.00
2018-07-26T05:07:11.153Z,8.83
2018-07-26T05:09:40.205Z,10.30
2018-07-26T05:12:09.281Z,8.70
2018-07-26T05:14:38.365Z,8.33
2018-07-26T05:17:07.450Z,8.70
2018-07-26T05:19:36.545Z,8.37
2018-07-26T05:22:05.668Z,7.80
2018-07-26T05:24:34.781Z,7.83
2018-07-26T05:27:03.942Z,8.43
2018-07-26T05:29:33.089Z,8.20
2018-07-26T05:32:02.107Z,8.03
2018-07-26T05:34:31.218Z,8.90
2018-07-26T05:37:00.609Z,8.20
2018-07-26T05:39:29.807Z,7.80
2018-07-26T05:41:58.936Z,8.43
2018-07-26T05:44:28.061Z,8.90
2018-07-26T05:46:57.141Z,8.13
2018-07-26T05:49:26.173Z,8.10
2018-07-26T05:51:55.249Z,8.90
2018-07-26T05:54:24.330Z,8.67
2018-07-26T05:56:54.533Z,9.87
2018-07-26T05:59:24.366Z,9.67
2018-07-26T06:01:53.572Z,9.60
2018-07-26T06:04:22.818Z,9.20
2018-07-26T06:06:51.953Z,10.33
2018-07-26T06:09:21.145Z,10.30
2018-07-26T06:11:50.234Z,8.80
2018-07-26T06:14:19.878Z,9.03
2018-07-26T06:16:48.966Z,9.07
2018-07-26T06:19:19.499Z,8.30
2018-07-26T06:21:48.609Z,8.50
2018-07-26T06:24:17.671Z,8.03
2018-07-26T06:26:46.725Z,7.30
2018-07-26T06:29:15.846Z,9.00
2018-07-26T06:31:45.211Z,8.80
2018-07-26T06:34:14.282Z,7.33
2018-07-26T06:36:43.351Z,7.80
2018-07-26T06:39:13.866Z,7.23
2018-07-26T06:41:43.906Z,8.53
2018-07-26T06:44:13.695Z,7.60
2018-07-26T06:46:43.412Z,7.50
2018-07-26T06:49:12.512Z,7.67
2018-07-26T06:51:41.657Z,8.40
2018-07-26T06:54:10.714Z,8.93
2018-07-26T06:56:39.965Z,7.70
2018-07-26T06:59:09.061Z,6.90
2018-07-26T07:01:38.340Z,7.20
2018-07-26T07:04:07.906Z,6.90
2018-07-26T07:06:37.127Z,7.20
2018-07-26T07:09:08.997Z,7.07
2018-07-26T07:11:38.430Z,6.60
2018-07-26T07:14:07.543Z,6.67
2018-07-26T07:16:36.649Z,6.70
2018-07-26T07:19:05.854Z,6.23
2018-07-26T07:21:34.949Z,6.67
2018-07-26T07:24:04.076Z,6.23
2018-07-26T07:26:33.167Z,6.33
2018-07-26T07:29:02.279Z,6.77
2018-07-26T07:31:31.511Z,7.50
2018-07-26T07:34:00.784Z,5.80
2018-07-26T07:36:29.874Z,6.70
2018-07-26T07:38:58.932Z,6.13
2018-07-26T07:41:28.102Z,6.50
2018-07-26T07:43:57.252Z,6.10
2018-07-26T07:46:26.461Z,6.50
2018-07-26T07:48:55.489Z,6.20
2018-07-26T07:51:25.379Z,13.43
2018-07-26T07:53:54.609Z,6.70
2018-07-26T07:56:23.725Z,6.70
2018-07-26T07:58:52.836Z,6.30
2018-07-26T08:01:21.912Z,6.90
2018-07-26T08:03:50.940Z,6.40
2018-07-26T08:06:20.323Z,6.10
2018-07-26T08:08:49.932Z,6.30
2018-07-26T08:11:19.443Z,6.70
2018-07-26T08:13:48.650Z,6.33
2018-07-26T08:16:17.926Z,7.57
2018-07-26T08:18:46.985Z,6.53
2018-07-26T08:21:16.258Z,7.07
2018-07-26T08:23:45.289Z,5.87
2018-07-26T08:26:14.395Z,6.40
2018-07-26T08:28:43.464Z,5.63
2018-07-26T08:31:12.601Z,5.83
2018-07-26T08:33:42.582Z,5.33
2018-07-26T08:36:11.707Z,6.20
2018-07-26T08:38:40.934Z,7.10
2018-07-26T08:41:10.584Z,6.30
2018-07-26T08:43:39.618Z,6.67
2018-07-26T08:46:08.807Z,6.90
2018-07-26T08:48:38.035Z,6.07
2018-07-26T08:51:07.184Z,5.47
2018-07-26T08:53:36.299Z,6.67
2018-07-26T08:56:05.417Z,6.67
2018-07-26T08:58:34.518Z,5.50
2018-07-26T09:01:03.818Z,5.20
2018-07-26T09:03:32.882Z,5.30
2018-07-26T09:06:02.337Z,4.83
2018-07-26T09:08:31.429Z,4.60
2018-07-26T09:11:00.593Z,4.73
2018-07-26T09:13:30.159Z,4.70
2018-07-26T09:15:59.285Z,4.13
2018-07-26T09:18:28.378Z,4.10
2018-07-26T09:20:57.620Z,3.70
2018-07-26T09:23:26.778Z,4.47
2018-07-26T09:25:55.905Z,3.53
2018-07-26T09:28:25.026Z,4.20
2018-07-26T09:30:54.175Z,4.30
2018-07-26T09:33:23.380Z,4.63
2018-07-26T09:35:52.360Z,4.20
2018-07-26T09:38:22.347Z,4.00
2018-07-26T09:40:51.418Z,4.07
2018-07-26T09:43:20.597Z,4.00
2018-07-26T09:45:50.023Z,4.87
2018-07-26T09:48:19.877Z,4.10
2018-07-26T09:50:49.099Z,4.00
2018-07-26T09:53:18.275Z,4.50
2018-07-26T09:55:47.507Z,4.17
2018-07-26T09:58:16.596Z,3.97
2018-07-26T10:00:50.987Z,4.60
2018-07-26T10:03:20.142Z,4.00
2018-07-26T10:05:49.241Z,4.33
2018-07-26T10:08:18.285Z,3.63
2018-07-26T10:10:47.716Z,3.53
2018-07-26T10:13:16.799Z,3.87
2018-07-26T10:15:46.277Z,3.90
2018-07-26T10:18:18.145Z,3.10
2018-07-26T10:20:47.446Z,3.87
2018-07-26T10:23:16.564Z,3.67
2018-07-26T10:25:45.834Z,3.97
2018-07-26T10:28:15.034Z,3.57
2018-07-26T10:30:44.400Z,4.23
2018-07-26T10:33:13.445Z,3.40
2018-07-26T10:35:42.610Z,3.70
2018-07-26T10:38:11.719Z,3.03
2018-07-26T10:40:40.951Z,3.10
2018-07-26T10:43:10.147Z,3.30
2018-07-26T10:45:39.249Z,3.30
2018-07-26T10:48:08.508Z,3.60
2018-07-26T10:50:37.531Z,3.10
2018-07-26T10:53:07.033Z,4.00
2018-07-26T10:55:36.193Z,3.00
2018-07-26T10:58:05.289Z,4.10
2018-07-26T11:00:34.623Z,4.53
2018-07-26T11:03:03.818Z,3.30
2018-07-26T11:05:32.877Z,2.93
2018-07-26T11:08:01.975Z,3.03
2018-07-26T11:10:31.104Z,4.20
2018-07-26T11:13:00.158Z,4.90
2018-07-26T11:15:31.098Z,3.20
2018-07-26T11:18:00.938Z,2.70
2018-07-26T11:20:30.158Z,2.83
2018-07-26T11:22:59.409Z,3.10
2018-07-26T11:25:28.565Z,3.80
2018-07-26T11:27:57.622Z,3.37
2018-07-26T11:30:26.668Z,3.50
2018-07-26T11:32:55.783Z,3.47
2018-07-26T11:35:24.882Z,3.10
2018-07-26T11:37:53.993Z,3.80
2018-07-26T11:40:23.069Z,3.23
2018-07-26T11:42:52.250Z,3.30
2018-07-26T11:45:21.613Z,3.80
2018-07-26T11:47:50.721Z,3.20
2018-07-26T11:50:20.085Z,3.43
2018-07-26T11:52:49.168Z,4.63
2018-07-26T11:55:18.307Z,3.40
2018-07-26T11:57:47.486Z,3.67
2018-07-26T12:00:16.722Z,3.60
2018-07-26T12:02:45.899Z,3.17
2018-07-26T12:05:15.004Z,3.50
2018-07-26T12:07:44.194Z,3.53
2018-07-26T12:10:15.189Z,3.03
2018-07-26T12:12:44.266Z,2.90
2018-07-26T12:15:13.393Z,3.30
2018-07-26T12:17:42.587Z,3.80
2018-07-26T12:20:11.642Z,3.20
2018-07-26T12:22:41.029Z,3.40
2018-07-26T12:25:10.227Z,3.10
2018-07-26T12:27:39.311Z,3.63
2018-07-26T12:30:08.816Z,3.43
2018-07-26T12:32:37.934Z,3.53
2018-07-26T12:35:07.008Z,3.93
2018-07-26T12:37:36.158Z,4.40
2018-07-26T12:40:05.713Z,3.20
2018-07-26T12:42:34.911Z,3.33
2018-07-26T12:45:04.305Z,3.97
2018-07-26T12:47:33.789Z,3.67
2018-07-26T12:50:02.923Z,4.07
2018-07-26T12:52:32.110Z,3.60
2018-07-26T12:55:01.166Z,4.27
2018-07-26T12:57:30.332Z,4.03
2018-07-26T12:59:59.457Z,3.50
2018-07-26T13:02:28.618Z,3.30
2018-07-26T13:04:57.691Z,3.73
2018-07-26T13:07:26.998Z,3.50
2018-07-26T13:09:56.460Z,4.00
2018-07-26T13:12:25.884Z,3.77
2018-07-26T13:14:55.010Z,4.03
2018-07-26T13:17:24.119Z,4.00
2018-07-26T13:19:53.181Z,3.53
2018-07-26T13:22:22.284Z,3.87
2018-07-26T13:24:51.928Z,4.23
2018-07-26T13:27:21.301Z,3.93
2018-07-26T13:29:50.350Z,3.80
2018-07-26T13:32:19.476Z,3.73
2018-07-26T13:34:48.783Z,4.03
2018-07-26T13:37:17.878Z,3.77
2018-07-26T13:39:47.036Z,4.43
2018-07-26T13:42:16.158Z,3.70
2018-07-26T13:44:45.318Z,3.97
2018-07-26T13:47:14.427Z,4.10
2018-07-26T13:49:43.734Z,4.07
2018-07-26T13:52:12.866Z,3.83
2018-07-26T13:54:42.053Z,3.73
2018-07-26T13:57:11.277Z,3.27
2018-07-26T13:59:40.461Z,4.37
2018-07-26T14:02:09.647Z,3.40
2018-07-26T14:04:38.875Z,3.97
2018-07-26T14:07:07.987Z,3.60
2018-07-26T14:09:37.202Z,3.63
2018-07-26T14:12:06.574Z,3.67
2018-07-26T14:14:35.657Z,3.77
2018-07-26T14:17:05.047Z,3.27
2018-07-26T14:19:34.194Z,4.13
2018-07-26T14:22:03.327Z,3.63
2018-07-26T14:24:32.502Z,3.70
2018-07-26T14:27:01.595Z,3.57
2018-07-26T14:29:31.470Z,3.63
2018-07-26T14:32:00.541Z,3.50
2018-07-26T14:34:29.655Z,3.50
2018-07-26T14:36:58.719Z,3.20
2018-07-26T14:39:27.885Z,3.50
2018-07-26T14:41:57.061Z,3.20
2018-07-26T14:44:26.209Z,3.47
2018-07-26T14:46:55.561Z,4.10
2018-07-26T14:49:26.161Z,3.60
2018-07-26T14:51:55.364Z,3.30
2018-07-26T14:54:24.425Z,3.10
2018-07-26T14:56:53.483Z,2.70
2018-07-26T14:59:22.627Z,3.33
2018-07-26T15:01:51.821Z,2.40
2018-07-26T15:04:20.926Z,2.33
2018-07-26T15:06:50.134Z,3.57
2018-07-26T15:09:19.339Z,2.57
2018-07-26T15:11:49.056Z,2.60
2018-07-26T15:14:18.535Z,2.73
2018-07-26T15:16:47.721Z,2.20
2018-07-26T15:19:16.957Z,1.93
2018-07-26T15:21:46.163Z,2.00
2018-07-26T15:24:15.650Z,2.20
2018-07-26T15:26:45.642Z,2.70
2018-07-26T15:29:14.737Z,2.30
2018-07-26T15:31:43.838Z,1.90
2018-07-26T15:34:12.898Z,2.27
2018-07-26T15:36:42.221Z,1.80
2018-07-26T15:39:11.542Z,2.83
2018-07-26T15:41:45.548Z,2.37
2018-07-26T15:44:15.889Z,2.13
2018-07-26T15:46:44.985Z,2.40
2018-07-26T15:49:14.075Z,3.67
2018-07-26T15:51:43.155Z,2.30
2018-07-26T15:54:12.249Z,1.70
2018-07-26T15:56:41.886Z,2.83
2018-07-26T15:59:11.195Z,3.10
2018-07-26T16:01:40.343Z,2.37
2018-07-26T16:04:09.522Z,1.97
2018-07-26T16:06:38.789Z,1.97
2018-07-26T16:09:09.798Z,2.00
2018-07-26T16:11:39.111Z,2.00
2018-07-26T16:14:08.964Z,1.87
2018-07-26T16:16:38.157Z,1.97
2018-07-26T16:19:07.221Z,2.10
2018-07-26T16:21:36.566Z,2.00
2018-07-26T16:24:05.795Z,3.30
2018-07-26T16:26:35.818Z,2.40
2018-07-26T16:29:05.099Z,2.30
2018-07-26T16:31:34.432Z,2.03
2018-07-26T16:34:03.731Z,1.90
2018-07-26T16:36:32.790Z,2.50
2018-07-26T16:39:01.883Z,2.50
2018-07-26T16:41:30.967Z,1.83
2018-07-26T16:44:00.058Z,2.13
2018-07-26T16:46:29.131Z,3.10
2018-07-26T16:48:58.245Z,2.47
2018-07-26T16:51:27.927Z,3.77
2018-07-26T16:53:57.535Z,3.40
2018-07-26T16:56:26.679Z,2.40
2018-07-26T16:58:55.908Z,2.23
2018-07-26T17:01:24.818Z,2.23
2018-07-26T17:03:53.935Z,2.00
2018-07-26T17:06:23.036Z,2.70
2018-07-26T17:08:52.132Z,2.60
2018-07-26T17:11:21.232Z,2.93
2018-07-26T17:13:50.328Z,2.50
2018-07-26T17:16:19.390Z,2.20
2018-07-26T17:18:48.607Z,2.20
2018-07-26T17:21:17.859Z,2.70
2018-07-26T17:23:47.474Z,2.60
2018-07-26T17:26:16.653Z,2.90
2018-07-26T17:28:45.754Z,2.70
2018-07-26T17:31:14.922Z,2.93
2018-07-26T17:33:44.034Z,3.27
2018-07-26T17:36:13.196Z,4.80
2018-07-26T17:38:42.307Z,2.70
2018-07-26T17:41:11.403Z,3.00
2018-07-26T17:43:40.512Z,3.60
2018-07-26T17:46:09.617Z,3.00
2018-07-26T17:48:38.751Z,3.57
2018-07-26T17:51:07.973Z,3.00
2018-07-26T17:53:37.100Z,3.07
2018-07-26T17:56:06.298Z,3.23
2018-07-26T17:58:35.352Z,2.90
2018-07-26T18:01:04.621Z,2.87
2018-07-26T18:03:34.006Z,2.97
2018-07-26T18:06:03.071Z,3.80
2018-07-26T18:08:32.214Z,2.60
2018-07-26T18:11:01.404Z,2.90
2018-07-26T18:13:30.510Z,3.07
2018-07-26T18:15:59.905Z,2.73
2018-07-26T18:18:29.030Z,3.17
2018-07-26T18:20:58.233Z,3.30
2018-07-26T18:23:27.403Z,2.30
2018-07-26T18:25:56.607Z,3.27
2018-07-26T18:28:25.829Z,4.00
2018-07-26T18:30:55.166Z,3.90
2018-07-26T18:33:24.395Z,4.13
2018-07-26T18:35:53.488Z,3.30
2018-07-26T18:38:22.619Z,3.80
2018-07-26T18:40:51.814Z,2.70
2018-07-26T18:43:20.921Z,3.03
2018-07-26T18:45:50.100Z,3.40
2018-07-26T18:48:19.224Z,3.67
2018-07-26T18:50:48.334Z,3.90
2018-07-26T18:53:17.416Z,3.33
2018-07-26T18:55:46.469Z,3.43
2018-07-26T18:58:15.587Z,3.50
2018-07-26T19:00:44.702Z,3.60
2018-07-26T19:03:13.835Z,3.43
2018-07-26T19:05:42.934Z,2.90
2018-07-26T19:08:12.078Z,3.07
2018-07-26T19:10:41.293Z,3.87
2018-07-26T19:13:10.449Z,4.00
2018-07-26T19:15:39.706Z,4.27
2018-07-26T19:18:08.753Z,4.70
2018-07-26T19:20:37.974Z,3.80
2018-07-26T19:23:07.003Z,3.77
2018-07-26T19:25:36.220Z,3.90
2018-07-26T19:28:05.365Z,4.10
2018-07-26T19:30:34.481Z,4.20
2018-07-26T19:33:03.558Z,4.37
2018-07-26T19:35:32.779Z,4.07
2018-07-26T19:38:02.509Z,3.87
2018-07-26T19:40:31.637Z,3.73
2018-07-26T19:43:01.213Z,3.70
2018-07-26T19:45:30.328Z,3.60
2018-07-26T19:48:03.887Z,4.07
2018-07-26T19:50:32.974Z,4.20
2018-07-26T19:53:02.107Z,4.03
2018-07-26T19:55:31.262Z,4.00
2018-07-26T19:58:00.383Z,4.03
2018-07-26T20:00:29.422Z,3.93
2018-07-26T20:02:58.502Z,3.77
2018-07-26T20:05:27.590Z,3.93
2018-07-26T20:07:56.721Z,4.10
2018-07-26T20:10:25.866Z,4.60
2018-07-26T20:12:55.018Z,4.37
2018-07-26T20:15:24.179Z,3.90
2018-07-26T20:17:53.546Z,4.43
2018-07-26T20:20:22.745Z,4.10
2018-07-26T20:22:51.801Z,4.03
2018-07-26T20:25:20.885Z,4.23
2018-07-26T20:27:50.033Z,4.30
2018-07-26T20:30:19.498Z,3.73
2018-07-26T20:32:48.644Z,4.33
2018-07-26T20:35:17.689Z,4.30
2018-07-26T20:37:46.825Z,4.50
2018-07-26T20:40:15.857Z,4.00
2018-07-26T20:42:45.020Z,4.03
2018-07-26T20:45:14.147Z,3.97
2018-07-26T20:47:43.290Z,3.93
2018-07-26T20:50:12.332Z,4.53
2018-07-26T20:52:41.477Z,4.37
2018-07-26T20:55:10.529Z,4.60
2018-07-26T20:57:39.620Z,4.50
2018-07-26T21:00:10.560Z,4.47
2018-07-26T21:02:39.722Z,4.67
2018-07-26T21:05:09.006Z,4.70
2018-07-26T21:07:38.044Z,4.90
2018-07-26T21:10:08.163Z,4.47
2018-07-26T21:12:37.269Z,4.67
2018-07-26T21:15:07.195Z,4.20
2018-07-26T21:17:36.347Z,4.70
2018-07-26T21:20:05.674Z,4.40
2018-07-26T21:22:34.889Z,4.50
2018-07-26T21:25:04.152Z,4.67
2018-07-26T21:27:33.220Z,5.17
2018-07-26T21:30:03.062Z,4.50
2018-07-26T21:32:32.133Z,4.37
2018-07-26T21:35:01.179Z,4.50
2018-07-26T21:37:30.432Z,5.03
2018-07-26T21:39:59.831Z,4.93
2018-07-26T21:42:28.881Z,6.27
2018-07-26T21:44:58.098Z,4.77
2018-07-26T21:47:27.294Z,4.80
2018-07-26T21:49:56.461Z,4.57
2018-07-26T21:52:25.677Z,5.33
2018-07-26T21:54:54.826Z,4.80
2018-07-26T21:57:24.289Z,4.90
2018-07-26T21:59:53.382Z,4.60
2018-07-26T22:02:22.548Z,5.13
2018-07-26T22:04:51.610Z,4.40
2018-07-26T22:07:20.898Z,4.47
2018-07-26T22:09:49.950Z,4.97
2018-07-26T22:12:19.074Z,5.30
2018-07-26T22:14:48.172Z,4.90
2018-07-26T22:17:17.243Z,4.73
2018-07-26T22:19:46.278Z,4.80
2018-07-26T22:22:15.372Z,5.00
2018-07-26T22:24:44.408Z,5.00
2018-07-26T22:27:13.483Z,5.07
2018-07-26T22:29:42.607Z,4.90
2018-07-26T22:32:11.697Z,5.13
2018-07-26T22:34:40.849Z,4.87
2018-07-26T22:37:09.992Z,5.10
2018-07-26T22:39:39.083Z,5.10
2018-07-26T22:42:08.183Z,4.80
2018-07-26T22:44:37.259Z,4.80
2018-07-26T22:47:06.313Z,4.93
2018-07-26T22:49:35.365Z,4.60
2018-07-26T22:52:04.449Z,4.73
2018-07-26T22:54:33.506Z,5.07
2018-07-26T22:57:02.606Z,5.00
2018-07-26T22:59:31.646Z,5.23
2018-07-26T23:02:00.737Z,4.50
2018-07-26T23:04:29.778Z,5.10
2018-07-26T23:06:58.888Z,4.77
2018-07-26T23:09:27.981Z,5.40
2018-07-26T23:11:57.105Z,5.30
2018-07-26T23:14:26.177Z,4.63
2018-07-26T23:16:56.476Z,4.97
2018-07-26T23:19:25.604Z,5.17
2018-07-26T23:21:54.652Z,5.10
2018-07-26T23:24:34.531Z,4.80
2018-07-26T23:27:03.597Z,5.03
2018-07-26T23:29:32.719Z,5.40
2018-07-26T23:32:01.817Z,5.33
2018-07-26T23:34:30.961Z,5.63
2018-07-26T23:37:00.007Z,5.13
2018-07-26T23:39:30.045Z,5.20
2018-07-26T23:41:59.057Z,5.30
2018-07-26T23:44:28.305Z,5.20
2018-07-26T23:46:57.417Z,5.37
2018-07-26T23:49:26.500Z,5.60
2018-07-26T23:51:55.553Z,4.90
2018-07-26T23:54:24.617Z,24.93
2018-07-26T23:56:53.661Z,5.57
2018-07-26T23:59:22.743Z,5.90
